Time;durP1;ratioP1;P1;durP2;ratioP2;P2;SDS_P1;SDS_P2;PMS_P1;PMS_P2;Temp;Humidity;BMP_temperature;BMP_pressure;BME280_temperature;BME280_humidity;BME280_pressure;Samples;Min_cycle;Max_cycle;Signal;HPM_P1;HPM_P2
2022/04/06 00:02:23;;;;;;;6.85;6.25;;;;;;;10.36;58.48;97947.37;1726232;82;20967;-66
2022/04/06 00:04:52;;;;;;;6.97;6.28;;;;;;;10.37;58.52;97947.69;1727692;82;21421;-66
2022/04/06 00:07:20;;;;;;;7.30;6.60;;;;;;;10.38;58.57;97949.30;1728124;82;20978;-65
2022/04/06 00:09:48;;;;;;;7.20;6.50;;;;;;;10.42;58.52;97938.08;1723887;82;21236;-65
2022/04/06 00:12:16;;;;;;;7.62;6.92;;;;;;;10.45;58.48;97948.27;1727724;82;21038;-65
2022/04/06 00:14:45;;;;;;;6.90;6.30;;;;;;;10.45;58.47;97945.61;1727742;82;20943;-65
2022/04/06 00:17:13;;;;;;;6.70;6.10;;;;;;;10.47;58.46;97945.42;1727461;82;20911;-66
2022/04/06 00:19:42;;;;;;;7.85;6.90;;;;;;;10.46;58.50;97945.11;1726726;82;20911;-64
2022/04/06 00:22:10;;;;;;;6.75;6.15;;;;;;;10.48;58.52;97948.40;1727047;82;21615;-65
2022/04/06 00:24:38;;;;;;;7.22;6.53;;;;;;;10.48;58.55;97946.53;1727614;82;20923;-65
2022/04/06 00:27:07;;;;;;;7.45;6.78;;;;;;;10.51;58.48;97951.44;1716554;82;20994;-67
2022/04/06 00:29:36;;;;;;;7.60;6.87;;;;;;;10.54;58.38;97949.70;1726226;83;20935;-66
2022/04/06 00:32:05;;;;;;;8.10;7.40;;;;;;;10.56;58.27;97953.47;1728056;82;21018;-66
2022/04/06 00:37:18;;;;;;;8.60;7.70;;;;;;;10.52;58.12;97952.27;1728139;82;21497;-66
2022/04/06 00:39:46;;;;;;;8.08;7.22;;;;;;;10.49;58.17;97952.67;1726895;82;20947;-66
2022/04/06 00:42:14;;;;;;;7.80;7.10;;;;;;;10.45;58.26;97946.15;1723957;82;22363;-65
2022/04/06 00:44:42;;;;;;;7.75;7.05;;;;;;;10.41;58.29;97941.74;1727867;82;20887;-65
2022/04/06 00:47:09;;;;;;;6.90;6.28;;;;;;;10.35;58.38;97933.79;1726761;83;21248;-66
2022/04/06 00:49:37;;;;;;;7.25;6.55;;;;;;;10.32;58.44;97936.85;1749415;81;20939;-66
2022/04/06 00:52:08;;;;;;;8.55;6.65;;;;;;;10.29;58.58;97930.61;1756192;80;20883;-64
2022/04/06 00:54:35;;;;;;;7.37;6.78;;;;;;;10.25;58.64;97934.19;1756526;81;20947;-65
2022/04/06 00:57:04;;;;;;;7.10;6.50;;;;;;;10.22;58.69;97934.59;1756919;81;20930;-66
2022/04/06 00:59:33;;;;;;;6.33;5.72;;;;;;;10.21;58.75;97937.47;1753827;81;20865;-66
2022/04/06 01:02:00;;;;;;;6.47;5.97;;;;;;;10.22;58.83;97943.09;1755144;81;20943;-66
2022/04/06 01:04:27;;;;;;;7.10;6.50;;;;;;;10.30;58.65;97941.53;1756481;81;20987;-66
2022/04/06 01:06:56;;;;;;;6.60;6.03;;;;;;;10.20;58.94;97928.67;1755168;81;20967;-66
2022/04/06 01:09:24;;;;;;;6.45;5.95;;;;;;;10.22;58.92;97936.45;1755720;81;20855;-64
2022/04/06 01:11:53;;;;;;;7.00;6.40;;;;;;;10.23;58.96;97943.38;1725521;81;20883;-66
2022/04/06 01:14:20;;;;;;;6.55;5.95;;;;;;;10.25;58.90;97947.97;1756523;81;20950;-66
2022/04/06 01:17:01;;;;;;;6.15;5.58;;;;;;;10.27;58.87;97944.63;1755634;81;20989;-64
2022/04/06 01:19:47;;;;;;;7.00;6.40;;;;;;;10.27;58.88;97940.64;1755258;81;21002;-65
2022/04/06 01:22:15;;;;;;;7.00;6.33;;;;;;;10.32;58.78;97950.14;1755892;81;20939;-65
2022/04/06 01:24:43;;;;;;;6.60;5.92;;;;;;;10.36;58.66;97949.52;1756720;81;21224;-67
2022/04/06 01:27:12;;;;;;;6.85;6.22;;;;;;;10.40;58.61;97949.40;1755627;81;20946;-65
2022/04/06 01:29:40;;;;;;;6.22;5.70;;;;;;;10.38;58.56;97941.33;1755137;81;20974;-67
2022/04/06 01:32:20;;;;;;;6.20;5.70;;;;;;;10.36;58.56;97946.03;1743212;81;20936;-64
2022/04/06 01:34:48;;;;;;;5.78;5.17;;;;;;;10.32;58.57;97936.34;1745683;81;21523;-65
2022/04/06 01:37:16;;;;;;;5.37;4.95;;;;;;;10.31;58.54;97937.86;1755487;81;22295;-68
2022/04/06 01:39:44;;;;;;;5.90;5.40;;;;;;;10.24;58.74;97939.72;1756139;81;20956;-65
2022/04/06 01:42:17;;;;;;;6.22;5.62;;;;;;;10.34;58.60;97942.27;1756392;81;21065;-68
2022/04/06 01:44:45;;;;;;;6.65;6.05;;;;;;;10.39;58.42;97935.82;1755686;81;21869;-66
2022/04/06 01:47:15;;;;;;;6.40;5.80;;;;;;;10.39;58.39;97933.16;1756208;81;20962;-67
2022/04/06 01:52:29;;;;;;;6.62;6.12;;;;;;;10.50;57.96;97911.27;1756552;81;20981;-65
2022/04/06 01:55:02;;;;;;;6.03;5.53;;;;;;;10.41;58.12;97901.86;1755935;81;21032;-64
2022/04/06 01:57:30;;;;;;;5.72;5.08;;;;;;;10.39;58.22;97892.47;1755180;81;21416;-66
2022/04/06 01:59:58;;;;;;;5.70;5.20;;;;;;;10.38;58.31;97898.80;1754840;81;20962;-66
2022/04/06 02:02:27;;;;;;;5.75;5.15;;;;;;;10.37;58.34;97914.45;1755662;81;21863;-66
2022/04/06 02:04:55;;;;;;;5.95;4.75;;;;;;;10.37;58.43;97911.80;1754859;81;21021;-63
2022/04/06 02:07:23;;;;;;;5.65;5.15;;;;;;;10.35;58.58;97913.85;1754416;81;20850;-66
2022/04/06 02:09:50;;;;;;;5.70;5.20;;;;;;;10.36;58.67;97921.61;1756456;81;20986;-66
2022/04/06 02:12:21;;;;;;;5.78;5.28;;;;;;;10.39;58.66;97915.88;1756390;81;20942;-63
2022/04/06 02:14:48;;;;;;;5.80;5.20;;;;;;;10.38;58.68;97917.40;1755111;81;21276;-68
2022/04/06 02:17:17;;;;;;;6.25;5.65;;;;;;;10.36;58.83;97916.80;1756097;81;21580;-66
2022/04/06 02:19:44;;;;;;;5.55;4.83;;;;;;;10.32;59.05;97907.61;1756102;81;20924;-66
2022/04/06 02:22:13;;;;;;;6.25;5.67;;;;;;;10.30;59.21;97905.66;1755810;81;20979;-67
2022/04/06 02:24:41;;;;;;;7.28;5.28;;;;;;;10.31;59.30;97905.46;1755223;81;20898;-64
2022/04/06 02:27:08;;;;;;;5.78;5.28;;;;;;;10.36;59.29;97904.84;1744543;81;21252;-67
2022/04/06 02:29:37;;;;;;;5.70;5.15;;;;;;;10.42;59.26;97898.20;1755965;81;21018;-66
2022/04/06 02:32:06;;;;;;;5.70;5.20;;;;;;;10.48;59.22;97896.55;1755909;80;20986;-65
2022/04/06 02:34:33;;;;;;;6.30;5.70;;;;;;;10.50;59.20;97894.50;1755702;81;20903;-65
2022/04/06 02:37:00;;;;;;;5.67;5.22;;;;;;;10.52;59.06;97900.42;1756508;81;20937;-66
2022/04/06 02:39:28;;;;;;;6.33;5.78;;;;;;;10.52;59.04;97905.73;1755471;81;21336;-64
2022/04/06 02:41:56;;;;;;;6.15;5.55;;;;;;;10.52;59.06;97898.58;1755010;81;20919;-65
2022/04/06 02:44:23;;;;;;;5.85;5.35;;;;;;;10.51;59.04;97895.61;1754961;81;20990;-65
2022/04/06 02:46:50;;;;;;;5.58;5.03;;;;;;;10.51;59.02;97899.59;1756673;81;21052;-67
2022/04/06 02:49:18;;;;;;;5.95;5.40;;;;;;;10.52;59.06;97891.11;1743066;81;20989;-66
2022/04/06 02:51:45;;;;;;;5.58;4.97;;;;;;;10.53;59.03;97880.25;1727663;82;21164;-66
2022/04/06 02:54:13;;;;;;;6.25;5.65;;;;;;;10.52;59.00;97885.28;1727770;82;20995;-66
2022/04/06 02:56:40;;;;;;;5.60;5.15;;;;;;;10.52;59.01;97885.80;1727533;82;20923;-66
2022/04/06 02:59:07;;;;;;;5.85;5.35;;;;;;;10.58;58.88;97874.84;1723085;83;20978;-67
2022/04/06 03:01:35;;;;;;;4.62;4.30;;;;;;;10.60;58.86;97874.94;1727012;82;21416;-68
2022/04/06 03:04:02;;;;;;;5.20;4.70;;;;;;;10.64;58.75;97876.14;1727410;82;21264;-64
2022/04/06 03:06:30;;;;;;;4.62;4.22;;;;;;;10.64;58.72;97874.02;1727694;82;20982;-65
2022/04/06 03:08:57;;;;;;;5.37;4.87;;;;;;;10.64;58.72;97877.47;1726833;82;21030;-65
2022/04/06 03:11:25;;;;;;;5.35;4.85;;;;;;;10.69;58.63;97872.88;1727843;82;20922;-65
2022/04/06 03:13:53;;;;;;;5.03;4.62;;;;;;;10.66;58.64;97870.12;1728073;82;20927;-66
2022/04/06 03:16:20;;;;;;;5.28;4.78;;;;;;;10.67;58.66;97870.91;1727879;82;21309;-66
2022/04/06 03:18:47;;;;;;;5.00;4.60;;;;;;;10.67;58.70;97882.87;1726807;82;20911;-64
2022/04/06 03:21:14;;;;;;;5.28;4.78;;;;;;;10.69;58.60;97881.64;1727692;82;21557;-68
2022/04/06 03:23:43;;;;;;;4.60;4.22;;;;;;;10.74;58.49;97885.82;1728178;82;20998;-67
2022/04/06 03:26:10;;;;;;;4.17;3.87;;;;;;;10.73;58.42;97881.55;1727769;82;20986;-67
2022/04/06 03:28:38;;;;;;;5.30;4.85;;;;;;;10.75;58.41;97891.45;1727113;82;21235;-67
2022/04/06 03:31:06;;;;;;;4.92;4.53;;;;;;;10.78;58.40;97898.20;1727296;82;20958;-66
2022/04/06 03:33:35;;;;;;;4.92;4.53;;;;;;;10.81;58.34;97896.45;1728020;82;21394;-66
2022/04/06 03:36:03;;;;;;;5.95;4.72;;;;;;;10.80;58.42;97898.30;1728061;82;21567;-67
2022/04/06 03:38:31;;;;;;;5.58;5.00;;;;;;;10.82;58.35;97894.91;1726716;82;21001;-67
2022/04/06 03:40:58;;;;;;;5.47;4.97;;;;;;;10.82;58.33;97894.91;1727998;82;21272;-63
2022/04/06 03:43:26;;;;;;;5.30;4.80;;;;;;;10.84;58.34;97892.88;1727663;82;20970;-65
2022/04/06 03:45:54;;;;;;;5.50;5.00;;;;;;;10.81;58.40;97890.63;1727922;82;20927;-66
2022/04/06 03:48:22;;;;;;;6.30;5.70;;;;;;;10.81;58.38;97895.95;1726584;82;21096;-67
2022/04/06 03:50:53;;;;;;;6.00;5.40;;;;;;;10.78;58.50;97884.90;1752071;81;21000;-67
2022/04/06 03:53:20;;;;;;;6.20;5.60;;;;;;;10.80;58.48;97881.51;1756328;81;21231;-67
2022/04/06 03:55:47;;;;;;;5.83;5.33;;;;;;;10.84;58.49;97877.42;1755054;81;20974;-65
2022/04/06 03:58:15;;;;;;;5.95;5.20;;;;;;;10.86;58.48;97880.17;1754798;81;20934;-67
2022/04/06 04:00:43;;;;;;;5.70;5.20;;;;;;;10.88;58.50;97879.95;1755792;81;20938;-65
2022/04/06 04:03:11;;;;;;;4.60;4.20;;;;;;;10.94;58.45;97877.79;1755766;81;20935;-66
2022/04/06 04:05:38;;;;;;;4.35;3.95;;;;;;;10.97;58.39;97878.19;1755164;81;21310;-66
2022/04/06 04:08:06;;;;;;;5.37;4.97;;;;;;;11.01;58.31;97879.39;1755060;81;20958;-64
2022/04/06 04:10:34;;;;;;;4.60;4.20;;;;;;;11.06;58.25;97876.09;1754752;81;20883;-67
2022/04/06 04:13:02;;;;;;;4.33;3.98;;;;;;;11.08;58.19;97879.34;1755113;81;21052;-65
2022/04/06 04:15:31;;;;;;;7.17;4.62;;;;;;;11.07;58.20;97872.41;1756702;80;20998;-67
2022/04/06 04:17:58;;;;;;;5.20;4.67;;;;;;;11.08;58.24;97868.70;1754843;81;22191;-64
2022/04/06 04:20:26;;;;;;;4.90;4.50;;;;;;;11.06;58.26;97870.26;1756327;81;21017;-64
2022/04/06 04:22:54;;;;;;;4.72;4.20;;;;;;;11.07;58.35;97879.06;1756175;80;20934;-65
2022/04/06 04:25:22;;;;;;;4.45;4.05;;;;;;;11.06;58.37;97875.58;1755585;80;20970;-63
2022/04/06 04:27:50;;;;;;;4.75;4.42;;;;;;;11.07;58.41;97879.88;1755520;81;20920;-64
2022/04/06 04:30:19;;;;;;;4.78;4.37;;;;;;;11.10;58.38;97880.80;1756404;81;21266;-66
2022/04/06 04:32:46;;;;;;;4.90;4.50;;;;;;;11.13;58.37;97879.55;1755672;81;21271;-63
2022/04/06 04:35:14;;;;;;;5.30;4.80;;;;;;;11.16;58.30;97874.60;1754579;81;21054;-65
2022/04/06 04:37:42;;;;;;;4.85;4.45;;;;;;;11.22;58.20;97886.25;1755539;81;21477;-67
2022/04/06 04:40:10;;;;;;;6.08;5.47;;;;;;;11.25;58.13;97879.17;1754157;81;20942;-66
2022/04/06 04:42:38;;;;;;;5.00;4.60;;;;;;;11.29;58.14;97878.25;1755567;81;21247;-68
2022/04/06 04:45:09;;;;;;;5.17;4.67;;;;;;;11.36;58.00;97863.05;1755991;81;21504;-65
2022/04/06 04:47:39;;;;;;;5.40;4.90;;;;;;;11.38;57.94;97860.98;1756187;81;20938;-66
2022/04/06 04:50:09;;;;;;;5.25;4.83;;;;;;;11.42;57.90;97855.00;1742410;81;20962;-66
2022/04/06 04:52:36;;;;;;;5.35;4.85;;;;;;;11.53;57.79;97859.65;1727155;82;20891;-64
2022/04/06 04:55:04;;;;;;;5.05;4.65;;;;;;;11.66;57.66;97850.23;1727130;82;22135;-66
2022/04/06 04:57:32;;;;;;;4.95;4.65;;;;;;;11.87;57.39;97861.07;1726949;82;20895;-67
2022/04/06 04:59:59;;;;;;;5.78;5.28;;;;;;;12.09;56.90;97854.34;1727945;82;21093;-65
2022/04/06 05:02:26;;;;;;;4.60;4.20;;;;;;;12.34;56.25;97864.45;1727320;83;20983;-65
2022/04/06 05:04:54;;;;;;;4.70;4.30;;;;;;;12.52;55.39;97866.82;1724301;82;20895;-64
2022/04/06 05:07:22;;;;;;;4.80;4.40;;;;;;;12.57;54.83;97872.31;1718569;82;21313;-65
2022/04/06 05:09:50;;;;;;;4.95;4.55;;;;;;;12.59;54.33;97871.59;1727862;82;20995;-65
2022/04/06 05:12:19;;;;;;;4.90;4.50;;;;;;;12.53;53.91;97865.28;1727266;83;21025;-64
2022/04/06 05:14:47;;;;;;;4.70;4.30;;;;;;;12.52;53.45;97880.98;1726647;83;20959;-66
2022/04/06 05:17:16;;;;;;;4.53;4.12;;;;;;;12.49;53.11;97864.63;1726945;82;21516;-63
2022/04/06 05:19:44;;;;;;;4.50;4.10;;;;;;;12.49;53.08;97881.42;1727877;82;21563;-66
2022/04/06 05:22:11;;;;;;;4.17;3.77;;;;;;;12.59;52.83;97880.93;1726801;82;21525;-65
2022/04/06 05:24:39;;;;;;;4.60;4.20;;;;;;;12.65;52.66;97877.35;1727527;82;20974;-64
2022/04/06 05:27:07;;;;;;;4.62;4.22;;;;;;;12.77;52.33;97868.41;1709603;83;21599;-67
2022/04/06 05:29:35;;;;;;;6.55;5.92;;;;;;;12.88;52.15;97875.66;1720490;82;20883;-67
2022/04/06 05:32:03;;;;;;;5.78;5.25;;;;;;;12.95;51.98;97867.58;1727037;83;22115;-64
2022/04/06 05:34:30;;;;;;;5.00;4.53;;;;;;;13.03;51.65;97866.46;1726990;83;20938;-65
2022/04/06 05:36:59;;;;;;;4.90;4.45;;;;;;;13.07;51.38;97875.16;1727545;82;20996;-66
2022/04/06 05:39:26;;;;;;;6.30;5.70;;;;;;;13.04;51.23;97888.91;1719961;82;21009;-64
2022/04/06 05:41:55;;;;;;;5.72;5.20;;;;;;;13.05;51.22;97895.08;1725620;82;21465;-65
2022/04/06 05:44:23;;;;;;;4.67;4.37;;;;;;;13.01;51.28;97898.70;1727293;82;22561;-67
2022/04/06 05:46:51;;;;;;;4.95;4.53;;;;;;;13.04;51.17;97890.25;1726932;82;20941;-67
2022/04/06 05:49:18;;;;;;;5.00;4.60;;;;;;;13.05;51.08;97897.23;1728023;82;21280;-66
2022/04/06 05:51:46;;;;;;;5.10;4.50;;;;;;;13.02;51.02;97896.34;1719911;83;20967;-67
2022/04/06 05:54:13;;;;;;;4.60;4.20;;;;;;;13.04;50.98;97902.27;1726180;83;20879;-65
2022/04/06 05:56:42;;;;;;;4.90;4.42;;;;;;;13.00;50.92;97908.59;1726355;82;20979;-65
2022/04/06 05:59:09;;;;;;;5.00;4.50;;;;;;;12.98;50.94;97908.52;1727423;82;20981;-65
2022/04/06 06:01:38;;;;;;;4.92;4.53;;;;;;;12.97;51.05;97914.88;1726697;82;21536;-67
2022/04/06 06:04:05;;;;;;;4.80;4.40;;;;;;;13.01;51.01;97906.70;1727247;83;20947;-63
2022/04/06 06:06:35;;;;;;;5.20;4.70;;;;;;;13.09;50.96;97917.12;1721565;82;21454;-67
2022/04/06 06:09:04;;;;;;;5.47;4.97;;;;;;;13.23;50.83;97917.78;1727830;82;21358;-64
2022/04/06 06:11:32;;;;;;;7.53;6.80;;;;;;;13.30;50.73;97919.33;1727104;82;20922;-65
2022/04/06 06:13:59;;;;;;;8.43;7.62;;;;;;;13.35;50.67;97930.15;1727131;82;20981;-66
2022/04/06 06:16:28;;;;;;;6.47;5.87;;;;;;;13.41;50.69;97926.59;1726689;82;21024;-68
2022/04/06 06:18:56;;;;;;;5.37;4.87;;;;;;;13.41;50.76;97927.09;1726724;82;21446;-65
2022/04/06 06:21:26;;;;;;;5.40;4.90;;;;;;;13.43;50.80;97922.34;1727080;82;21112;-66
2022/04/06 06:23:54;;;;;;;5.78;5.33;;;;;;;13.42;50.87;97924.22;1726493;83;21429;-66
2022/04/06 06:26:21;;;;;;;5.87;5.37;;;;;;;13.44;50.81;97924.80;1710881;83;20934;-66
2022/04/06 06:28:48;;;;;;;6.15;5.65;;;;;;;13.49;51.66;97926.28;1727505;82;20997;-68
2022/04/06 06:31:16;;;;;;;5.92;5.40;;;;;;;13.54;51.39;97931.75;1727744;82;21484;-66
2022/04/06 06:33:44;;;;;;;4.90;4.50;;;;;;;13.65;51.25;97922.67;1727719;82;21268;-65
2022/04/06 06:36:11;;;;;;;5.30;4.80;;;;;;;13.78;50.95;97927.83;1727410;82;20934;-65
2022/04/06 06:38:38;;;;;;;5.62;5.12;;;;;;;13.92;50.83;97935.41;1727723;82;20987;-69
2022/04/06 06:41:07;;;;;;;7.10;6.42;;;;;;;14.17;50.53;97939.27;1719675;82;21496;-66
2022/04/06 06:43:36;;;;;;;6.15;5.62;;;;;;;14.36;50.35;97943.52;1727558;82;20851;-67
2022/04/06 06:46:03;;;;;;;5.20;4.70;;;;;;;14.64;50.08;97930.27;1727746;82;21122;-64
2022/04/06 06:48:32;;;;;;;5.30;4.70;;;;;;;15.04;49.92;97934.89;1727671;82;20931;-64
2022/04/06 06:50:59;;;;;;;6.33;5.72;;;;;;;15.34;49.40;97933.64;1732048;82;21701;-63
2022/04/06 06:53:26;;;;;;;5.90;5.30;;;;;;;15.61;48.83;97941.98;1735678;82;20986;-66
2022/04/06 06:55:54;;;;;;;4.92;4.42;;;;;;;15.82;48.02;97941.31;1735732;82;20926;-66
2022/04/06 06:58:21;;;;;;;5.37;4.90;;;;;;;15.84;47.54;97940.53;1735835;82;22052;-63
2022/04/06 07:00:49;;;;;;;5.35;4.85;;;;;;;15.85;47.72;97948.84;1736259;82;20950;-67
2022/04/06 07:03:18;;;;;;;5.25;4.80;;;;;;;15.77;47.94;97963.98;1723327;82;20954;-64
2022/04/06 07:05:45;;;;;;;5.62;4.70;;;;;;;15.68;49.07;97964.09;1735401;82;21005;-70
2022/04/06 07:08:13;;;;;;;5.42;4.92;;;;;;;15.74;49.81;97959.13;1735478;82;20922;-68
2022/04/06 07:10:45;;;;;;;5.72;5.17;;;;;;;15.61;50.11;97966.11;1735357;82;21045;-65
2022/04/06 07:13:14;;;;;;;4.30;3.90;;;;;;;15.68;50.18;97962.75;1725025;82;20918;-68
2022/04/06 07:15:41;;;;;;;6.47;5.83;;;;;;;15.73;49.32;97955.32;1735811;82;20918;-68
2022/04/06 07:18:10;;;;;;;5.35;4.85;;;;;;;15.70;48.37;97962.50;1726904;82;21504;-66
2022/04/06 07:20:37;;;;;;;5.83;4.50;;;;;;;15.67;48.11;97971.83;1735821;82;20930;-66
2022/04/06 07:23:06;;;;;;;4.83;4.33;;;;;;;15.75;47.79;97969.30;1724194;82;21268;-66
2022/04/06 07:25:34;;;;;;;5.58;5.08;;;;;;;15.79;48.04;97977.98;1735478;82;20926;-68
2022/04/06 07:28:03;;;;;;;5.00;4.60;;;;;;;15.84;47.46;97966.53;1735826;82;21572;-65
2022/04/06 07:30:31;;;;;;;4.75;4.35;;;;;;;15.83;47.39;97979.64;1735769;82;20973;-68
2022/04/06 07:32:58;;;;;;;6.62;5.15;;;;;;;15.96;47.39;97978.83;1733536;82;21488;-66
2022/04/06 07:35:27;;;;;;;5.40;4.90;;;;;;;16.07;47.39;97971.78;1729581;82;21882;-67
2022/04/06 07:37:55;;;;;;;5.08;4.60;;;;;;;16.00;48.21;97986.70;1740267;82;20910;-68
2022/04/06 07:40:23;;;;;;;5.47;4.97;;;;;;;16.02;48.12;97971.69;1720925;82;21000;-68
2022/04/06 07:42:51;;;;;;;4.87;4.47;;;;;;;16.00;48.35;97982.67;1732965;82;20958;-63
2022/04/06 07:45:20;;;;;;;5.03;4.62;;;;;;;16.09;48.34;97980.39;1735306;82;21106;-68
2022/04/06 07:47:50;;;;;;;5.83;5.25;;;;;;;16.31;47.76;97993.93;1735010;81;21244;-68
2022/04/06 07:50:18;;;;;;;4.70;4.30;;;;;;;16.37;47.51;97991.63;1738160;81;21025;-66
2022/04/06 07:52:45;;;;;;;4.45;4.05;;;;;;;16.36;47.26;98001.55;1755849;81;20895;-65
2022/04/06 07:55:13;;;;;;;5.53;5.05;;;;;;;16.43;47.29;98001.38;1756291;81;20942;-68
2022/04/06 07:57:40;;;;;;;5.45;4.95;;;;;;;16.49;46.84;97995.86;1756399;81;21006;-65
2022/04/06 08:00:13;;;;;;;4.80;4.40;;;;;;;16.45;46.84;98005.99;1720669;81;20952;-65
2022/04/06 08:02:41;;;;;;;3.95;3.65;;;;;;;16.44;46.69;98009.72;1749656;81;21005;-65
2022/04/06 08:05:09;;;;;;;4.65;4.25;;;;;;;16.40;46.72;98022.02;1743332;80;21540;-67
2022/04/06 08:07:39;;;;;;;4.20;3.60;;;;;;;16.37;46.73;98011.76;1754381;81;20861;-66
2022/04/06 08:10:08;;;;;;;5.95;4.05;;;;;;;16.34;46.74;98009.55;1754382;80;21070;-63
2022/04/06 08:12:36;;;;;;;4.10;3.77;;;;;;;16.26;46.52;98022.02;1752891;81;21272;-65
2022/04/06 08:15:07;;;;;;;4.25;3.90;;;;;;;16.13;46.53;98024.48;1751443;81;20919;-64
2022/04/06 08:17:37;;;;;;;4.62;4.00;;;;;;;16.06;46.73;98036.68;1755104;81;20954;-63
2022/04/06 08:20:08;;;;;;;5.03;4.53;;;;;;;16.09;46.96;98026.00;1755024;81;20942;-66
2022/04/06 08:22:36;;;;;;;5.20;4.70;;;;;;;16.22;47.10;98040.45;1752376;81;20926;-64
2022/04/06 08:25:05;;;;;;;4.53;4.12;;;;;;;16.29;47.16;98038.98;1756517;81;21219;-63
2022/04/06 08:27:36;;;;;;;5.83;4.22;;;;;;;16.39;47.22;98029.24;1755286;81;20967;-64
2022/04/06 08:30:04;;;;;;;4.10;3.80;;;;;;;16.52;46.92;98036.17;1756313;81;20952;-67
2022/04/06 08:32:32;;;;;;;3.70;3.40;;;;;;;16.60;46.70;98037.14;1754773;81;21023;-64
2022/04/06 08:35:00;;;;;;;3.40;3.10;;;;;;;16.60;46.50;98039.83;1755786;81;21039;-65
2022/04/06 08:37:31;;;;;;;4.20;3.40;;;;;;;16.58;46.44;98046.77;1755636;81;21428;-66
2022/04/06 08:39:59;;;;;;;3.80;3.50;;;;;;;16.58;46.51;98048.11;1756271;81;20950;-65
2022/04/06 08:55:05;;;;;;;4.15;3.80;;;;;;;16.82;46.92;98051.45;1725260;82;20943;-65
2022/04/06 08:57:35;;;;;;;3.30;3.10;;;;;;;17.24;46.35;98046.45;1735833;82;20855;-65
2022/04/06 09:00:05;;;;;;;4.47;4.08;;;;;;;17.38;46.02;98050.44;1736003;82;21757;-63
2022/04/06 09:02:33;;;;;;;5.03;4.53;;;;;;;17.80;45.69;98056.13;1735353;82;20964;-65
2022/04/06 09:05:03;;;;;;;3.75;3.45;;;;;;;18.24;45.56;98051.52;1735935;82;20996;-62
2022/04/06 09:07:31;;;;;;;4.20;3.85;;;;;;;18.72;44.45;98050.10;1735723;82;21125;-64
2022/04/06 09:10:02;;;;;;;3.55;3.25;;;;;;;18.89;43.86;98051.33;1718082;82;21543;-64
2022/04/06 09:12:31;;;;;;;3.35;3.05;;;;;;;18.98;43.39;98054.62;1735989;82;20902;-66
2022/04/06 09:15:12;;;;;;;4.35;3.95;;;;;;;18.93;42.97;98051.08;1735801;82;20986;-66
2022/04/06 09:17:48;;;;;;;3.72;3.35;;;;;;;18.73;42.78;98048.23;1735753;82;21484;-63
2022/04/06 09:20:19;;;;;;;3.83;3.52;;;;;;;18.47;43.05;98049.36;1726147;82;21425;-65
2022/04/06 09:22:48;;;;;;;4.28;3.90;;;;;;;18.29;43.28;98049.69;1736046;82;21024;-66
2022/04/06 09:25:19;;;;;;;4.08;3.67;;;;;;;18.18;43.55;98060.06;1735891;82;20899;-65
2022/04/06 09:27:49;;;;;;;3.40;3.10;;;;;;;18.07;43.79;98060.22;1735780;82;20978;-63
2022/04/06 09:30:17;;;;;;;3.65;3.35;;;;;;;17.97;43.94;98056.04;1735616;82;20930;-65
2022/04/06 09:32:47;;;;;;;4.17;3.87;;;;;;;17.76;44.18;98063.88;1735816;82;21268;-66
2022/04/06 09:35:29;;;;;;;3.62;3.33;;;;;;;17.62;44.68;98068.01;1735627;82;21460;-63
2022/04/06 09:38:16;;;;;;;3.30;3.10;;;;;;;17.55;44.85;98055.25;1736292;82;20937;-64
2022/04/06 09:40:44;;;;;;;3.40;3.10;;;;;;;17.43;44.83;98063.94;1736009;82;20958;-63
2022/04/06 09:43:27;;;;;;;3.40;3.20;;;;;;;17.35;45.16;98054.95;1735951;82;20946;-65
2022/04/06 09:48:56;;;;;;;3.25;3.05;;;;;;;17.25;45.26;98063.70;1735719;82;20950;-62
2022/04/06 09:51:25;;;;;;;3.37;3.08;;;;;;;17.17;45.35;98062.77;1737271;80;21621;-65
2022/04/06 09:53:55;;;;;;;3.87;3.58;;;;;;;17.14;45.44;98064.59;1740855;81;21014;-65
2022/04/06 09:56:24;;;;;;;3.75;3.45;;;;;;;17.08;45.61;98070.95;1740805;81;20953;-65
2022/04/06 09:58:53;;;;;;;3.27;2.90;;;;;;;17.08;45.93;98071.47;1740846;81;21134;-65
2022/04/06 10:01:20;;;;;;;3.35;3.05;;;;;;;17.18;46.06;98062.25;1740804;81;20985;-65
2022/04/06 10:03:52;;;;;;;3.42;3.05;;;;;;;17.26;46.05;98059.93;1740917;81;21096;-66
2022/04/06 10:06:20;;;;;;;3.50;3.30;;;;;;;17.35;45.85;98063.55;1740594;81;21065;-64
2022/04/06 10:08:48;;;;;;;3.50;3.20;;;;;;;17.49;45.60;98057.58;1740964;81;21517;-64
2022/04/06 10:11:16;;;;;;;3.20;3.00;;;;;;;17.49;45.62;98063.48;1740900;81;21173;-65
2022/04/06 10:13:43;;;;;;;3.90;3.60;;;;;;;17.51;45.46;98065.39;1741165;81;20942;-65
2022/04/06 10:16:12;;;;;;;3.80;3.50;;;;;;;17.52;45.21;98064.34;1740856;81;20910;-63
2022/04/06 10:18:42;;;;;;;6.80;3.40;;;;;;;17.50;45.20;98061.88;1741197;81;20985;-63
2022/04/06 10:21:22;;;;;;;3.20;3.00;;;;;;;17.47;45.22;98052.96;1729858;81;20949;-65
2022/04/06 10:24:15;;;;;;;3.25;3.00;;;;;;;17.43;45.27;98061.25;1740260;81;21159;-61
2022/04/06 10:27:31;;;;;;;3.58;3.37;;;;;;;17.42;45.29;98066.34;1740776;81;20894;-62
2022/04/06 10:30:16;;;;;;;3.80;3.50;;;;;;;17.46;45.11;98071.52;1741414;81;20982;-65
2022/04/06 10:32:46;;;;;;;4.08;3.77;;;;;;;17.31;45.48;98071.83;1740055;81;20906;-66
2022/04/06 10:35:27;;;;;;;3.58;3.37;;;;;;;17.23;45.57;98077.89;1740830;81;20936;-65
2022/04/06 10:37:59;;;;;;;3.52;3.22;;;;;;;17.11;45.79;98082.55;1741237;81;21935;-62
2022/04/06 10:40:31;;;;;;;4.08;3.75;;;;;;;17.05;46.02;98084.86;1741071;81;21480;-64
2022/04/06 10:42:58;;;;;;;4.65;4.22;;;;;;;17.05;46.21;98085.42;1741540;81;20969;-64
2022/04/06 10:45:35;;;;;;;5.83;3.65;;;;;;;16.97;46.42;98090.64;1740605;81;21057;-64
2022/04/06 10:48:16;;;;;;;3.50;3.30;;;;;;;16.92;46.47;98091.91;1740849;81;21045;-66
2022/04/06 10:50:45;;;;;;;3.55;3.25;;;;;;;16.90;46.46;98085.97;1740442;82;21264;-65
2022/04/06 10:53:24;;;;;;;5.17;4.53;;;;;;;16.95;46.49;98093.29;1728986;81;21488;-65
2022/04/06 10:56:12;;;;;;;4.47;4.10;;;;;;;17.02;46.64;98089.93;1728147;82;21021;-66
2022/04/06 10:58:58;;;;;;;5.67;4.20;;;;;;;17.13;46.54;98089.01;1727397;82;21085;-65
2022/04/06 11:01:32;;;;;;;4.33;3.92;;;;;;;17.24;46.21;98097.52;1694339;82;21077;-65
2022/04/06 11:04:18;;;;;;;5.00;4.50;;;;;;;17.26;46.03;98096.73;1727384;82;21236;-65
2022/04/06 11:06:55;;;;;;;4.00;3.70;;;;;;;17.23;46.10;98103.97;1728081;82;20954;-63
2022/04/06 11:12:24;;;;;;;4.35;4.00;;;;;;;17.04;46.25;98101.24;1727749;82;20962;-65
2022/04/06 11:15:01;;;;;;;5.15;4.75;;;;;;;16.93;46.57;98103.47;1728045;82;21479;-64
2022/04/06 11:17:37;;;;;;;4.47;4.08;;;;;;;16.86;46.79;98102.30;1727737;82;21163;-64
2022/04/06 11:20:15;;;;;;;4.17;3.77;;;;;;;16.73;47.17;98109.33;1727889;82;20938;-64
2022/04/06 11:22:56;;;;;;;4.75;4.28;;;;;;;16.75;47.28;98107.73;1727373;82;21473;-65
2022/04/06 11:25:29;;;;;;;4.78;4.35;;;;;;;16.78;47.27;98112.62;1727692;82;20954;-64
2022/04/06 11:28:08;;;;;;;4.50;4.10;;;;;;;16.79;47.43;98092.78;1727848;82;20911;-66
2022/04/06 11:30:38;;;;;;;4.90;4.50;;;;;;;16.93;47.35;98098.09;1727724;82;21296;-66
2022/04/06 11:33:06;;;;;;;4.67;3.92;;;;;;;17.02;47.23;98102.84;1715843;82;20990;-61
2022/04/06 11:35:36;;;;;;;5.03;4.53;;;;;;;17.13;47.04;98098.41;1727490;82;21445;-64
2022/04/06 11:38:04;;;;;;;4.20;3.90;;;;;;;17.25;46.90;98095.95;1727714;82;20994;-64
2022/04/06 11:40:32;;;;;;;3.90;3.60;;;;;;;17.58;46.07;98091.59;1727636;82;21022;-65
2022/04/06 11:43:04;;;;;;;3.83;3.37;;;;;;;17.58;45.52;98090.24;1727723;82;21933;-66
2022/04/06 11:45:40;;;;;;;3.27;3.08;;;;;;;17.56;45.38;98098.57;1727453;82;21039;-63
2022/04/06 11:48:15;;;;;;;3.95;3.65;;;;;;;17.65;45.39;98106.48;1716159;82;21504;-65
2022/04/06 11:50:43;;;;;;;3.85;3.55;;;;;;;17.71;45.10;98101.45;1727545;82;21125;-64
2022/04/06 11:53:18;;;;;;;5.40;3.60;;;;;;;17.71;44.96;98104.67;1722810;82;20939;-63
2022/04/06 11:55:50;;;;;;;4.12;3.83;;;;;;;17.71;45.00;98096.08;1735472;82;21259;-64
2022/04/06 11:58:39;;;;;;;4.08;3.75;;;;;;;17.76;45.01;98095.33;1735920;82;20851;-64
2022/04/06 12:01:21;;;;;;;3.65;3.35;;;;;;;17.76;45.02;98100.70;1724369;82;20942;-64
2022/04/06 12:03:44;;;;;;;3.83;3.52;;;;;;;17.76;44.90;98081.35;1699039;84;20978;-64
2022/04/06 12:06:14;;;;;;;3.58;3.27;;;;;;;17.77;44.59;98091.06;1700450;84;20929;-64
2022/04/06 12:08:45;;;;;;;3.30;3.10;;;;;;;17.82;44.46;98082.23;1700220;84;21896;-63
2022/04/06 12:11:12;;;;;;;4.10;3.45;;;;;;;17.83;44.53;98089.25;1699514;84;20897;-66